Benet Lake, WI (53102)

1:54 PM CST on December 06, 2016 (GMT -0600)
87th & 184th Ave, Highway D | | Change Station

Elev 730 ft 42.55 °N, 88.03 °W | Updated 15 seconds ago

Overcast
Overcast
34.5 °F
Feels Like 31 °F
N
4.0
Wind Variable Wind from WNW
Gusts 14.0 mph

Today
High -- | Low -- °F
--% Chance of Precip.
Yesterday
High -- | Low -- °F
Precip. -- in
Pressure 29.74 in
Visibility 4.0 miles
Clouds Mostly Cloudy 700 ft
Overcast 1400 ft
Windchill 31 °F
Dew Point 33 °F
Humidity 94%
Rainfall 0.22 in
Snow Depth Not available.
7:07 AM 4:18 PM
Waxing Crescent, 44% visible
SPECI KENW 061857Z 26014G19KT 4SM BR BKN007 OVC014 02/00 A2974 RMK AO2 CIG 006V011 T00170000
Pressure 29.74 in
Visibility 4.0 miles
Clouds Mostly Cloudy 700 ft
Overcast 1400 ft
Windchill 31 °F
Dew Point 33 °F
Humidity 94%
Rainfall 0.22 in
Snow Depth Not available.
7:07 AM 4:18 PM
Waxing Crescent, 44% visible
SPECI KENW 061857Z 26014G19KT 4SM BR BKN007 OVC014 02/00 A2974 RMK AO2 CIG 006V011 T00170000

10-Day Weather Forecast

Almanac

Astronomy

Dec. 06, 2016 Rise Set
Actual Time
Civil Twilight
Nautical Twilight
Astronomical Twilight
Moon
Length of Visible Light
Length of Day
Tomorrow will be .
, % of the Moon is Illuminated

Today's Extremes

State Highs State Lows

Community

WunderPhotos

Upload Photos

1,956,020 photos uploaded!

WunderBlog® & News

Nearby

Air Quality

  Air Quality AQ Index Pollutant
Not available.

Snow Depth

Station Depth Elevation

Earthquake Activity

City Distance Mag. Time & Date
Minimum magnitude displayed is 2.5.

Coastal Water Temperatures

Place Temperature

Stations

Nearby Weather Stations

Station Location Temp. Windchill Dew Point Humidity Wind Precip. Elev Updated Type
                   

Watches & Warnings

There are currently no watches in effect.